Time;durP1;ratioP1;P1;durP2;ratioP2;P2;SDS_P1;SDS_P2;PMS_P1;PMS_P2;Temp;Humidity;BMP_temperature;BMP_pressure;BME280_temperature;BME280_humidity;BME280_pressure;Samples;Min_cycle;Max_cycle;Signal;HPM_P1;HPM_P2
2020/12/27 00:02:13;;;;;;;18.40;10.55;;;;;;;1.74;59.27;100392.19;4412398;32;20118;-92
2020/12/27 00:04:39;;;;;;;16.77;9.77;;;;;;;1.64;59.27;100385.19;4397289;32;20137;-93
2020/12/27 00:07:07;;;;;;;16.73;9.23;;;;;;;1.76;59.27;100371.69;4396659;32;20124;-93
2020/12/27 00:09:33;;;;;;;17.27;8.82;;;;;;;1.36;59.25;100373.66;4384461;32;20113;-93
2020/12/27 00:11:58;;;;;;;16.62;8.50;;;;;;;1.29;59.25;100373.56;4409189;32;20168;-93
2020/12/27 00:14:24;;;;;;;17.25;8.77;;;;;;;1.30;59.25;100383.84;4396434;32;22185;-93
2020/12/27 00:16:49;;;;;;;12.73;7.50;;;;;;;1.32;59.24;100373.59;4396836;32;20483;-93
2020/12/27 00:19:14;;;;;;;13.20;7.47;;;;;;;1.32;59.25;100374.47;4396722;32;20143;-93
2020/12/27 00:21:40;;;;;;;16.75;8.93;;;;;;;1.46;59.25;100367.84;4396716;32;20135;-93
2020/12/27 00:24:05;;;;;;;16.55;8.60;;;;;;;1.45;59.26;100360.13;4396482;32;20121;-93
2020/12/27 00:26:31;;;;;;;15.52;8.43;;;;;;;1.30;59.25;100362.47;4396961;32;20236;-93
2020/12/27 00:28:56;;;;;;;17.90;8.95;;;;;;;1.37;59.25;100364.25;4396854;32;20173;-94
2020/12/27 00:31:21;;;;;;;17.80;8.77;;;;;;;1.36;59.25;100354.84;4396801;32;20101;-95
2020/12/27 00:33:47;;;;;;;18.58;9.20;;;;;;;1.49;59.26;100354.19;4396660;32;20184;-93
2020/12/27 00:36:18;;;;;;;15.50;8.30;;;;;;;1.39;59.25;100357.44;4397023;32;20106;-93
2020/12/27 00:38:43;;;;;;;15.73;8.25;;;;;;;1.32;59.24;100360.78;4383893;32;20089;-93
2020/12/27 00:41:08;;;;;;;14.27;7.82;;;;;;;1.40;59.26;100349.78;4396592;32;20379;-93
2020/12/27 00:43:34;;;;;;;13.82;7.35;;;;;;;1.12;59.24;100345.94;4396267;32;20197;-94
2020/12/27 00:45:59;;;;;;;12.95;6.35;;;;;;;1.08;59.23;100343.31;4396653;32;20391;-94
2020/12/27 00:48:24;;;;;;;15.23;6.72;;;;;;;1.00;59.23;100347.47;4397175;32;20132;-95
2020/12/27 00:50:50;;;;;;;14.07;7.12;;;;;;;1.08;59.23;100348.44;4396245;32;20145;-94
2020/12/27 00:53:15;;;;;;;14.45;7.57;;;;;;;1.03;59.23;100342.37;4397107;32;20142;-95
2020/12/27 00:55:43;;;;;;;16.37;7.95;;;;;;;1.05;59.23;100341.56;4396537;32;20155;-91
2020/12/27 00:58:08;;;;;;;15.32;7.87;;;;;;;1.12;59.24;100334.81;4382821;32;20082;-91
2020/12/27 01:00:33;;;;;;;18.00;7.65;;;;;;;0.99;59.23;100331.22;4395025;32;20133;-92
2020/12/27 01:02:59;;;;;;;15.55;7.78;;;;;;;1.02;59.23;100322.72;4394498;32;27898;-90
2020/12/27 01:05:24;;;;;;;13.25;7.78;;;;;;;0.98;59.23;100318.37;4395342;32;20157;-92
2020/12/27 01:07:50;;;;;;;14.32;8.20;;;;;;;1.05;59.24;100325.31;4394799;32;20501;-91
2020/12/27 01:10:15;;;;;;;17.23;8.25;;;;;;;1.00;59.23;100327.81;4395122;32;20114;-92
2020/12/27 01:12:41;;;;;;;13.55;7.72;;;;;;;0.93;59.22;100329.41;4395307;32;20171;-92
2020/12/27 01:15:07;;;;;;;12.60;7.65;;;;;;;1.01;59.23;100334.66;4394469;32;20170;-92
2020/12/27 01:17:33;;;;;;;15.07;7.93;;;;;;;1.02;59.23;100327.84;4394468;32;20108;-91
2020/12/27 01:19:58;;;;;;;15.93;8.40;;;;;;;0.89;59.23;100340.44;4395145;32;21549;-91
2020/12/27 01:22:24;;;;;;;15.55;7.85;;;;;;;0.86;59.22;100335.28;4394974;32;20180;-93
2020/12/27 01:24:49;;;;;;;15.57;8.00;;;;;;;0.74;59.21;100339.34;4394635;32;20143;-92
2020/12/27 01:27:14;;;;;;;10.55;6.72;;;;;;;0.71;59.21;100335.03;4394878;32;20124;-92
2020/12/27 01:29:40;;;;;;;13.95;7.30;;;;;;;0.71;59.21;100323.91;4394742;32;20173;-92
2020/12/27 01:32:05;;;;;;;14.75;7.43;;;;;;;0.75;59.22;100313.75;4395379;32;20149;-92
2020/12/27 01:34:31;;;;;;;13.43;6.97;;;;;;;0.81;59.21;100311.28;4394673;32;23213;-91
2020/12/27 01:36:56;;;;;;;14.25;7.28;;;;;;;0.80;59.21;100304.44;4407796;32;20478;-92
2020/12/27 01:39:22;;;;;;;13.10;7.75;;;;;;;0.76;59.22;100306.94;4395489;32;20121;-93
2020/12/27 01:41:47;;;;;;;16.70;7.97;;;;;;;0.74;59.21;100311.16;4396096;32;20149;-93
2020/12/27 01:44:13;;;;;;;18.20;8.77;;;;;;;0.77;59.22;100309.50;4395929;32;20427;-93
2020/12/27 01:46:40;;;;;;;18.87;8.93;;;;;;;0.70;59.21;100305.09;4383114;32;20169;-93
2020/12/27 01:49:06;;;;;;;19.62;10.23;;;;;;;0.73;59.21;100309.44;4395704;32;20161;-94
2020/12/27 01:51:31;;;;;;;18.52;10.43;;;;;;;0.81;59.21;100302.72;4408196;32;20121;-93
2020/12/27 01:53:57;;;;;;;13.85;8.00;;;;;;;0.79;59.22;100301.84;4396734;32;20407;-94
2020/12/27 01:56:27;;;;;;;16.08;8.75;;;;;;;0.82;59.23;100295.06;4395544;32;20165;-94
2020/12/27 01:58:55;;;;;;;16.85;9.02;;;;;;;0.71;59.21;100296.59;4394983;32;20681;-94
2020/12/27 02:01:21;;;;;;;21.10;10.43;;;;;;;0.63;59.21;100295.59;4383226;32;20796;-92
2020/12/27 02:03:46;;;;;;;23.73;10.18;;;;;;;0.60;59.21;100300.66;4396869;32;20143;-92
2020/12/27 02:06:12;;;;;;;22.58;9.63;;;;;;;0.66;59.22;100298.19;4397057;32;20449;-92
2020/12/27 02:08:37;;;;;;;18.23;9.88;;;;;;;0.55;59.20;100299.75;4396380;32;20163;-92
2020/12/27 02:11:03;;;;;;;27.85;11.55;;;;;;;0.54;59.20;100288.63;4396992;32;20130;-93
2020/12/27 02:13:28;;;;;;;24.48;11.27;;;;;;;0.30;59.19;100291.63;4397118;32;20106;-93
2020/12/27 02:15:54;;;;;;;23.80;12.07;;;;;;;0.49;59.20;100284.28;4410590;32;20104;-92
2020/12/27 02:18:19;;;;;;;23.73;11.73;;;;;;;0.47;59.20;100279.09;4397425;32;20157;-94
2020/12/27 02:20:45;;;;;;;22.95;11.88;;;;;;;0.41;59.19;100284.13;4396850;32;21968;-93
2020/12/27 02:23:15;;;;;;;17.77;9.07;;;;;;;0.43;59.19;100272.19;4397015;32;20138;-94
2020/12/27 02:25:41;;;;;;;15.95;8.95;;;;;;;0.40;59.20;100267.03;4384627;32;20102;-93
2020/12/27 02:28:06;;;;;;;15.23;8.45;;;;;;;0.39;59.20;100269.56;4397320;32;20102;-92
2020/12/27 02:30:32;;;;;;;15.40;9.23;;;;;;;0.42;59.19;100261.94;4397401;32;20142;-93
2020/12/27 02:32:57;;;;;;;19.25;9.98;;;;;;;0.34;59.19;100263.50;4397451;32;20185;-92
2020/12/27 02:35:23;;;;;;;17.52;9.68;;;;;;;0.28;59.18;100267.69;4397009;32;20109;-93
2020/12/27 02:37:48;;;;;;;18.95;9.23;;;;;;;0.33;59.19;100272.03;4397211;32;20360;-93
2020/12/27 02:40:14;;;;;;;15.82;8.93;;;;;;;0.34;59.19;100268.63;4397216;32;20136;-93
2020/12/27 02:42:40;;;;;;;13.77;8.18;;;;;;;0.33;59.20;100264.34;4397433;32;20086;-94
2020/12/27 02:45:11;;;;;;;13.18;7.18;;;;;;;0.27;59.19;100257.44;4397438;32;20093;-92
2020/12/27 02:47:38;;;;;;;14.80;7.75;;;;;;;0.28;59.18;100262.56;4397561;32;20113;-92
2020/12/27 02:50:14;;;;;;;12.57;6.47;;;;;;;0.31;59.19;100251.53;4385407;32;20110;-93
2020/12/27 02:52:40;;;;;;;13.15;5.93;;;;;;;0.24;59.19;100249.69;4384620;32;20174;-92
2020/12/27 02:55:05;;;;;;;12.70;7.15;;;;;;;0.15;59.18;100255.50;4396570;32;20085;-94
2020/12/27 02:57:31;;;;;;;12.85;7.20;;;;;;;0.14;59.18;100242.69;4397680;32;20136;-93
2020/12/27 02:59:56;;;;;;;12.27;6.80;;;;;;;0.10;59.18;100251.13;4396996;32;20118;-92
2020/12/27 03:02:21;;;;;;;13.50;7.10;;;;;;;0.08;59.17;100243.44;4409028;32;22171;-93
2020/12/27 03:04:47;;;;;;;12.98;6.53;;;;;;;0.10;59.18;100243.47;4396896;32;20184;-93
2020/12/27 03:07:12;;;;;;;12.30;6.53;;;;;;;0.03;59.17;100237.37;4396674;32;20130;-95
2020/12/27 03:09:38;;;;;;;10.48;6.55;;;;;;;0.07;59.17;100235.72;4397545;32;20109;-93
2020/12/27 03:12:04;;;;;;;12.13;6.70;;;;;;;0.11;59.18;100238.38;4397290;32;20118;-93
2020/12/27 03:14:29;;;;;;;11.50;6.07;;;;;;;0.09;59.18;100232.38;4395840;32;20149;-93
2020/12/27 03:16:54;;;;;;;11.82;6.25;;;;;;;0.16;59.19;100230.75;4396749;32;20384;-93
2020/12/27 03:19:20;;;;;;;12.02;6.30;;;;;;;-0.25;59.16;100230.00;4396471;32;20162;-92
2020/12/27 03:21:45;;;;;;;12.63;6.62;;;;;;;-0.24;59.16;100218.94;4396397;32;20461;-92
2020/12/27 03:24:11;;;;;;;11.15;5.65;;;;;;;-0.13;59.17;100228.53;4396627;32;20380;-94
2020/12/27 03:26:36;;;;;;;11.48;5.80;;;;;;;-0.23;59.16;100224.09;4397542;32;20173;-93
2020/12/27 03:29:01;;;;;;;10.15;6.22;;;;;;;-0.36;59.15;100222.12;4396678;32;20158;-94
2020/12/27 03:31:27;;;;;;;10.18;5.70;;;;;;;-0.39;59.15;100227.19;4397073;32;20138;-92
2020/12/27 03:33:52;;;;;;;10.48;6.10;;;;;;;-0.29;59.15;100225.66;4396518;32;20119;-94
2020/12/27 03:36:18;;;;;;;11.48;6.22;;;;;;;-0.47;59.15;100226.19;4396772;32;23761;-93
2020/12/27 03:38:45;;;;;;;11.30;5.65;;;;;;;-0.51;59.14;100226.94;4396117;32;20166;-93
2020/12/27 03:41:10;;;;;;;11.60;5.47;;;;;;;-0.42;59.15;100220.31;4396581;32;20173;-93
2020/12/27 03:43:35;;;;;;;11.73;5.90;;;;;;;-0.35;59.16;100217.03;4396503;32;20125;-93
2020/12/27 03:46:01;;;;;;;10.93;5.32;;;;;;;-0.43;59.16;100215.19;4397617;32;20169;-93
2020/12/27 03:48:26;;;;;;;10.85;5.62;;;;;;;-0.50;59.15;100209.06;4396983;32;20150;-93
2020/12/27 03:50:52;;;;;;;9.30;5.47;;;;;;;-0.44;59.15;100209.22;4397114;32;20164;-94
2020/12/27 03:53:17;;;;;;;9.13;5.70;;;;;;;-0.49;59.15;100204.81;4397845;32;23010;-92
2020/12/27 03:55:43;;;;;;;11.68;5.78;;;;;;;-0.66;59.13;100197.69;4396774;32;20439;-93
2020/12/27 03:58:08;;;;;;;10.35;5.07;;;;;;;-0.63;59.14;100192.63;4397253;32;20171;-93
2020/12/27 04:00:34;;;;;;;10.35;5.00;;;;;;;-0.63;59.14;100187.53;4396503;32;20114;-93
2020/12/27 04:03:00;;;;;;;10.13;5.60;;;;;;;-0.62;59.14;100196.91;4396520;32;20116;-93
2020/12/27 04:05:25;;;;;;;11.27;5.70;;;;;;;-0.66;59.13;100186.59;4396569;32;20474;-93
2020/12/27 04:07:51;;;;;;;11.20;5.82;;;;;;;-0.66;59.13;100179.78;4410651;32;20114;-94
2020/12/27 04:10:16;;;;;;;10.88;5.62;;;;;;;-0.68;59.14;100178.03;4396712;32;20104;-92
2020/12/27 04:12:42;;;;;;;10.43;5.55;;;;;;;-0.71;59.14;100176.28;4396884;32;20122;-94
2020/12/27 04:15:10;;;;;;;14.05;5.87;;;;;;;-0.73;59.12;100167.69;4396712;32;20178;-94
2020/12/27 04:17:36;;;;;;;12.63;5.82;;;;;;;-0.75;59.13;100168.50;4396317;32;26093;-93
2020/12/27 04:20:02;;;;;;;11.55;6.10;;;;;;;-0.73;59.13;100167.69;4396841;32;20408;-93
2020/12/27 04:22:27;;;;;;;9.95;5.22;;;;;;;-0.81;59.13;100173.50;4397982;32;20111;-94
2020/12/27 04:24:52;;;;;;;12.57;6.03;;;;;;;-0.89;59.12;100169.94;4397345;32;20207;-95
2020/12/27 04:27:18;;;;;;;12.18;7.15;;;;;;;-0.71;59.14;100154.94;4397249;32;20130;-93
2020/12/27 04:29:43;;;;;;;12.57;5.82;;;;;;;-0.72;59.13;100148.97;4397012;32;20154;-94
2020/12/27 04:32:09;;;;;;;12.60;6.03;;;;;;;-0.78;59.13;100148.00;4397207;32;20145;-95
2020/12/27 04:34:34;;;;;;;10.82;6.22;;;;;;;-0.82;59.13;100151.34;4397781;32;20121;-95
2020/12/27 04:37:00;;;;;;;10.68;5.60;;;;;;;-0.87;59.12;100142.72;4398493;32;20124;-95
2020/12/27 04:39:25;;;;;;;9.40;5.22;;;;;;;-0.82;59.13;100148.78;4398501;32;20106;-94
2020/12/27 04:42:01;;;;;;;;;;;;;;;;;;;;;
2020/12/27 04:44:49;;;;;;;;;;;;;;;;;;;;;
2020/12/27 04:47:18;;;;;;;13.38;6.57;;;;;;;-0.73;59.13;100138.72;4398626;32;35265;-93
2020/12/27 04:49:56;;;;;;;11.65;5.93;;;;;;;-0.83;59.13;100136.84;4410585;32;20839;-94
2020/12/27 04:52:21;;;;;;;10.35;5.90;;;;;;;-0.65;59.13;100116.75;4397003;32;20694;-94
2020/12/27 04:54:50;;;;;;;11.32;6.32;;;;;;;-0.89;59.12;100135.03;4396596;32;20121;-93
2020/12/27 04:57:17;;;;;;;11.90;6.45;;;;;;;-1.06;59.11;100126.16;4396562;32;20114;-94
2020/12/27 04:59:45;;;;;;;12.07;7.28;;;;;;;-1.04;59.11;100127.91;4384193;32;20090;-95
2020/12/27 05:02:10;;;;;;;15.88;7.18;;;;;;;-1.08;59.12;100120.16;4384480;32;20116;-95
2020/12/27 05:04:37;;;;;;;16.87;7.32;;;;;;;-1.10;59.11;100124.34;4398811;32;20144;-94
2020/12/27 05:07:03;;;;;;;13.35;6.82;;;;;;;-1.13;59.11;100127.72;4397022;32;20101;-94
2020/12/27 05:09:29;;;;;;;15.05;6.78;;;;;;;-1.07;59.12;100126.97;4396885;32;20157;-96
2020/12/27 05:11:55;;;;;;;18.90;8.75;;;;;;;-1.16;59.11;100137.00;4397344;32;20081;-95
2020/12/27 05:14:30;;;;;;;28.90;12.20;;;;;;;-1.13;59.11;100134.53;4397373;32;20113;-96
2020/12/27 05:16:57;;;;;;;27.50;12.52;;;;;;;-1.00;59.12;100127.12;4397819;32;20135;-94
2020/12/27 05:19:22;;;;;;;26.02;11.75;;;;;;;-0.98;59.11;100122.03;4397717;32;20116;-95
2020/12/27 05:21:48;;;;;;;33.78;13.62;;;;;;;-1.01;59.12;100114.31;4396692;32;20609;-93
2020/12/27 05:24:14;;;;;;;23.77;10.77;;;;;;;-1.08;59.12;100120.16;4396212;32;20102;-94
2020/12/27 05:26:40;;;;;;;25.12;11.10;;;;;;;-0.96;59.12;100107.59;4397056;32;20506;-95
2020/12/27 05:29:05;;;;;;;27.08;12.32;;;;;;;-1.08;59.12;100112.47;4396213;32;20124;-96
2020/12/27 05:31:36;;;;;;;20.52;9.38;;;;;;;-1.09;59.11;100106.50;4396833;32;20106;-95
2020/12/27 05:34:02;;;;;;;23.62;11.55;;;;;;;-1.04;59.11;100093.81;4384033;32;20117;-95
2020/12/27 05:36:28;;;;;;;25.12;11.18;;;;;;;-1.13;59.11;100107.28;4395669;32;20455;-95
2020/12/27 05:38:54;;;;;;;22.92;11.27;;;;;;;-1.09;59.11;100097.97;4399240;32;20116;-94
2020/12/27 05:42:07;;;;;;;22.50;9.68;;;;;;;-1.13;59.11;100078.31;4399602;32;20065;-95
2020/12/27 05:44:36;;;;;;;23.25;11.00;;;;;;;-1.18;59.10;100070.56;4392202;32;20144;-95
2020/12/27 05:50:41;;;;;;;21.50;10.88;;;;;;;-1.18;59.10;100060.34;4377733;32;20093;-94
2020/12/27 05:53:16;;;;;;;23.75;11.00;;;;;;;-1.13;59.11;100047.66;4398016;32;20156;-94
2020/12/27 05:55:47;;;;;;;24.10;11.15;;;;;;;-1.14;59.11;100046.81;4398196;32;20785;-94
2020/12/27 05:58:17;;;;;;;25.33;11.57;;;;;;;-0.92;59.12;100030.19;4410704;32;20864;-95
2020/12/27 06:00:43;;;;;;;31.15;15.80;;;;;;;-1.04;59.11;100023.16;4399147;32;20094;-95
2020/12/27 06:03:24;;;;;;;31.90;16.17;;;;;;;-1.05;59.11;100018.88;4397597;32;20152;-93
2020/12/27 06:05:56;;;;;;;48.65;20.17;;;;;;;-1.06;59.11;100017.16;4409970;32;20106;-96
2020/12/27 06:08:33;;;;;;;43.30;22.05;;;;;;;-1.14;59.11;100021.25;4398666;32;20140;-96
2020/12/27 06:11:50;;;;;;;37.08;18.75;;;;;;;-1.08;59.12;100010.28;4398750;32;20090;-96
2020/12/27 06:14:08;;;;;;;35.47;16.75;;;;;;;-1.11;59.11;100006.00;4402467;32;20125;-95
2020/12/27 06:17:20;;;;;;;35.08;16.70;;;;;;;-1.07;59.12;100002.66;4399319;32;20101;-95
2020/12/27 06:19:48;;;;;;;33.30;16.20;;;;;;;-0.94;59.12;100013.97;4396478;32;20082;-93
2020/12/27 06:22:33;;;;;;;30.45;12.90;;;;;;;-0.86;59.13;100014.97;4398481;32;20099;-92
2020/12/27 06:25:00;;;;;;;27.15;13.55;;;;;;;-0.82;59.13;100008.22;4393655;32;20098;-90
2020/12/27 06:27:29;;;;;;;23.60;12.37;;;;;;;-0.88;59.12;100000.44;4395459;32;20113;-90
2020/12/27 06:30:01;;;;;;;30.42;13.93;;;;;;;-0.87;59.12;99994.50;4395396;32;20228;-90
2020/12/27 06:32:28;;;;;;;29.73;16.95;;;;;;;-0.51;59.14;99984.88;4407820;32;20098;-90
2020/12/27 06:34:54;;;;;;;33.20;18.10;;;;;;;-0.47;59.15;99988.38;4395181;32;20086;-90
2020/12/27 06:37:19;;;;;;;31.20;15.38;;;;;;;-0.77;59.13;99998.94;4395715;32;20483;-89
2020/12/27 06:39:45;;;;;;;40.33;18.23;;;;;;;-0.95;59.12;99999.47;4395503;32;20165;-91
2020/12/27 06:42:13;;;;;;;42.80;18.67;;;;;;;-1.03;59.11;99986.56;4394969;32;20960;-88
2020/12/27 06:44:40;;;;;;;31.60;16.70;;;;;;;-1.20;59.11;99981.94;4394538;32;20172;-88
2020/12/27 06:47:06;;;;;;;30.60;14.57;;;;;;;-1.14;59.11;99975.28;4408346;32;20536;-88
2020/12/27 06:49:31;;;;;;;26.52;13.43;;;;;;;-1.05;59.11;99974.59;4406477;32;20110;-89
2020/12/27 06:51:56;;;;;;;34.10;16.10;;;;;;;-0.91;59.12;99978.25;4407298;32;20470;-88
2020/12/27 06:54:46;;;;;;;40.80;17.20;;;;;;;-0.84;59.13;99982.62;4394364;32;20126;-89
2020/12/27 06:57:43;;;;;;;43.13;20.17;;;;;;;-0.75;59.13;99984.47;4394305;32;20106;-89
2020/12/27 07:00:24;;;;;;;37.45;17.12;;;;;;;-0.70;59.14;99988.00;4393260;32;20178;-88
2020/12/27 07:03:11;;;;;;;30.52;14.43;;;;;;;-0.67;59.13;99988.03;4394287;32;20104;-89
2020/12/27 07:05:38;;;;;;;28.95;13.75;;;;;;;-0.57;59.15;99989.03;4382126;32;20108;-89
2020/12/27 07:08:10;;;;;;;31.75;16.35;;;;;;;-0.58;59.14;99985.63;4394475;32;20106;-88
2020/12/27 07:10:43;;;;;;;40.35;19.87;;;;;;;-0.45;59.14;99979.03;4406763;32;20106;-89
2020/12/27 07:13:10;;;;;;;34.53;16.70;;;;;;;-0.41;59.15;99989.31;4406647;32;20183;-88
2020/12/27 07:15:36;;;;;;;37.20;17.67;;;;;;;-0.43;59.16;100001.22;4408050;32;20082;-88
2020/12/27 07:18:08;;;;;;;41.80;21.75;;;;;;;-0.26;59.16;100005.72;4406811;32;20090;-88
2020/12/27 07:20:34;;;;;;;49.88;29.98;;;;;;;-0.11;59.17;100005.97;4408075;32;20505;-88
2020/12/27 07:22:59;;;;;;;40.03;19.10;;;;;;;0.07;59.17;99990.91;4406665;32;20077;-88
2020/12/27 07:25:25;;;;;;;62.22;33.35;;;;;;;0.15;59.18;99999.53;4406381;32;20414;-88
2020/12/27 07:27:50;;;;;;;65.53;41.80;;;;;;;0.14;59.18;99997.81;4393431;32;21415;-88
2020/12/27 07:30:17;;;;;;;42.85;20.85;;;;;;;0.30;59.19;100006.56;4406542;32;20107;-87
2020/12/27 07:32:43;;;;;;;65.37;29.50;;;;;;;0.41;59.20;100009.25;4394133;32;20120;-87
2020/12/27 07:35:09;;;;;;;63.85;27.70;;;;;;;0.45;59.20;99986.25;4394238;32;20097;-87
2020/12/27 07:37:34;;;;;;;53.60;24.30;;;;;;;0.39;59.20;100008.38;4394421;32;20125;-89
2020/12/27 07:40:00;;;;;;;61.22;24.80;;;;;;;0.50;59.20;100002.56;4406301;32;29586;-87
2020/12/27 07:42:25;;;;;;;30.17;14.05;;;;;;;0.61;59.21;100002.69;4393157;32;25608;-87
2020/12/27 07:44:51;;;;;;;31.98;13.48;;;;;;;0.69;59.21;100002.78;4407781;32;20540;-88
2020/12/27 07:47:16;;;;;;;30.65;13.73;;;;;;;0.82;59.23;99997.81;4393613;32;20114;-86
2020/12/27 07:49:42;;;;;;;45.38;24.23;;;;;;;0.87;59.22;99998.72;4405885;32;23452;-87
2020/12/27 07:52:08;;;;;;;30.20;18.23;;;;;;;1.05;59.24;99990.38;4406328;32;20737;-87
2020/12/27 07:54:33;;;;;;;23.58;13.05;;;;;;;1.17;59.24;99976.78;4393888;32;20078;-86
2020/12/27 07:56:58;;;;;;;20.10;11.27;;;;;;;1.36;59.25;99962.44;4406441;32;20401;-87
2020/12/27 07:59:24;;;;;;;25.30;11.02;;;;;;;1.32;59.24;99947.87;4405957;32;20173;-87
2020/12/27 08:01:50;;;;;;;31.58;15.65;;;;;;;1.46;59.25;99946.31;4406302;32;20149;-87
2020/12/27 08:04:15;;;;;;;27.20;13.13;;;;;;;1.53;59.26;99937.78;4406338;32;20482;-89
2020/12/27 08:06:41;;;;;;;27.10;12.27;;;;;;;1.61;59.26;99915.59;4380694;32;26777;-86
2020/12/27 08:09:07;;;;;;;29.70;13.13;;;;;;;1.71;59.27;99912.28;4406708;32;20130;-88
2020/12/27 08:11:33;;;;;;;25.25;12.75;;;;;;;1.75;59.27;99920.84;4407825;32;20132;-87
2020/12/27 08:14:00;;;;;;;24.48;12.77;;;;;;;1.62;59.28;99935.28;4406356;32;20475;-87
2020/12/27 08:16:25;;;;;;;26.00;11.68;;;;;;;1.80;59.28;99929.41;4406540;32;20154;-88
2020/12/27 08:19:07;;;;;;;19.10;10.25;;;;;;;1.93;59.29;99928.66;4400963;32;20401;-87
2020/12/27 08:21:36;;;;;;;20.40;9.13;;;;;;;1.98;59.28;99931.25;4377603;32;20094;-88
2020/12/27 08:24:06;;;;;;;19.35;9.30;;;;;;;2.12;59.29;99927.03;4383056;32;20792;-93
2020/12/27 08:26:33;;;;;;;22.33;10.85;;;;;;;2.25;59.30;99927.94;4381896;32;20451;-89
2020/12/27 08:29:15;;;;;;;15.70;8.30;;;;;;;2.25;59.30;99926.25;4386734;32;20109;-88
2020/12/27 08:31:45;;;;;;;17.92;8.48;;;;;;;2.40;59.31;99918.59;4385049;32;20485;-88
2020/12/27 08:34:15;;;;;;;21.02;9.23;;;;;;;2.30;59.31;99931.38;4390210;32;20158;-88
2020/12/27 08:36:41;;;;;;;;;;;;;;;2.46;59.31;99907.47;4392208;32;20122;-87
2020/12/27 08:39:39;;;;;;;20.83;11.95;;;;;;;2.48;59.31;99913.47;4392016;32;19982;-88
2020/12/27 08:42:12;;;;;;;9.95;4.80;;;;;;;2.18;59.30;99910.81;4378313;32;20459;-88
2020/12/27 08:44:45;;;;;;;10.82;4.78;;;;;;;2.41;59.31;99901.47;4390845;32;20156;-87
2020/12/27 08:47:25;;;;;;;11.57;6.07;;;;;;;2.34;59.30;99903.16;4390792;32;20490;-88
2020/12/27 08:49:55;;;;;;;13.57;5.47;;;;;;;2.32;59.31;99893.72;4391812;32;20140;-86
2020/12/27 08:52:22;;;;;;;14.95;6.28;;;;;;;2.37;59.31;99908.31;4367095;32;20116;-86
2020/12/27 08:54:56;;;;;;;9.65;5.45;;;;;;;2.29;59.31;99906.56;4409614;32;20106;-85
2020/12/27 08:57:21;;;;;;;11.85;5.93;;;;;;;2.30;59.31;99898.00;4395320;32;20128;-86
2020/12/27 09:00:06;;;;;;;17.83;6.95;;;;;;;2.42;59.31;99895.50;4395217;32;20463;-86
2020/12/27 09:02:32;;;;;;;13.23;6.20;;;;;;;2.63;59.32;99880.13;4395048;32;20089;-89
2020/12/27 09:05:10;;;;;;;12.07;5.47;;;;;;;2.55;59.32;99875.81;4411425;32;20101;-89
2020/12/27 09:07:36;;;;;;;10.77;5.28;;;;;;;2.46;59.31;99876.66;4393278;32;20118;-90
2020/12/27 09:10:18;;;;;;;14.50;5.53;;;;;;;2.57;59.32;99872.37;4393004;32;20106;-88
2020/12/27 09:13:01;;;;;;;17.17;6.68;;;;;;;2.79;59.33;99878.44;4392839;32;20850;-88
2020/12/27 09:15:29;;;;;;;12.32;5.43;;;;;;;2.88;59.34;99885.31;4409216;32;20465;-93
2020/12/27 09:17:55;;;;;;;25.10;9.63;;;;;;;2.96;59.35;99892.16;4391909;32;20106;-90
2020/12/27 09:20:21;;;;;;;9.80;4.93;;;;;;;3.00;59.34;99882.72;4390480;32;20510;-91
2020/12/27 09:22:46;;;;;;;12.80;4.87;;;;;;;2.95;59.35;99871.59;4366200;32;20102;-90
2020/12/27 09:25:11;;;;;;;9.13;4.68;;;;;;;3.02;59.35;99874.16;4377692;32;20146;-88
2020/12/27 09:27:40;;;;;;;10.38;5.35;;;;;;;2.95;59.35;99867.31;4391533;32;20122;-91
2020/12/27 09:30:05;;;;;;;11.77;5.62;;;;;;;3.05;59.35;99860.44;4378519;32;23981;-88
2020/12/27 09:32:34;;;;;;;10.85;4.82;;;;;;;3.12;59.35;99851.88;4378097;32;20094;-89
2020/12/27 09:34:59;;;;;;;11.75;5.45;;;;;;;3.36;59.36;99848.44;4378071;32;20436;-92
2020/12/27 09:37:25;;;;;;;11.30;5.57;;;;;;;3.34;59.37;99848.44;4367375;32;20098;-90
2020/12/27 09:39:56;;;;;;;9.73;4.97;;;;;;;3.47;59.37;99830.41;4366118;32;20184;-90
2020/12/27 09:42:23;;;;;;;12.35;5.62;;;;;;;3.43;59.36;99831.28;4365839;32;20070;-90
2020/12/27 09:44:49;;;;;;;12.50;5.35;;;;;;;3.44;59.37;99836.41;4380658;32;20189;-90
2020/12/27 09:47:24;;;;;;;10.02;4.65;;;;;;;3.50;59.37;99830.38;4372693;32;20110;-90
2020/12/27 09:50:31;;;;;;;11.65;6.25;;;;;;;3.62;59.38;99828.66;4401715;32;20133;-90
2020/12/27 09:52:57;;;;;;;11.25;5.43;;;;;;;3.33;59.37;99817.56;4388524;32;20455;-90
2020/12/27 09:55:22;;;;;;;9.48;4.97;;;;;;;3.55;59.38;99808.94;4398349;32;20102;-91
2020/12/27 09:57:48;;;;;;;11.48;5.62;;;;;;;3.76;59.39;99797.69;4396833;32;20135;-89
2020/12/27 10:00:13;;;;;;;18.00;8.82;;;;;;;3.58;59.38;99797.78;4395697;32;20146;-91
2020/12/27 10:02:39;;;;;;;12.18;5.93;;;;;;;3.87;59.39;99798.53;4396437;32;20892;-90
2020/12/27 10:05:04;;;;;;;13.27;6.60;;;;;;;3.75;59.38;99792.56;4392668;32;20168;-90
2020/12/27 10:07:30;;;;;;;12.98;7.43;;;;;;;3.78;59.39;99775.38;4374867;32;20196;-96
2020/12/27 10:09:55;;;;;;;13.50;7.07;;;;;;;3.71;59.39;99758.25;4395546;32;20105;-86
2020/12/27 10:12:21;;;;;;;15.45;7.50;;;;;;;3.82;59.39;99751.34;4405859;32;20133;-90
2020/12/27 10:14:53;;;;;;;13.93;6.07;;;;;;;3.75;59.38;99729.06;4379626;32;20185;-91
2020/12/27 10:17:18;;;;;;;13.68;6.53;;;;;;;3.89;59.39;99724.72;4380463;32;20122;-90
2020/12/27 10:19:54;;;;;;;20.42;8.20;;;;;;;3.57;59.38;99716.28;4407837;32;20118;-88
2020/12/27 10:22:25;;;;;;;16.23;8.50;;;;;;;3.57;59.38;99712.00;4424089;32;20173;-92
2020/12/27 10:24:50;;;;;;;14.15;7.18;;;;;;;3.62;59.38;99715.41;4405871;32;20097;-92
2020/12/27 10:27:18;;;;;;;21.40;11.73;;;;;;;3.85;59.39;99714.44;4387820;32;23329;-92
2020/12/27 10:29:43;;;;;;;14.82;7.87;;;;;;;4.05;59.41;99707.47;4398180;32;20090;-90
2020/12/27 10:32:09;;;;;;;12.20;6.30;;;;;;;3.97;59.41;99710.06;4397950;32;20150;-91
2020/12/27 10:34:34;;;;;;;14.30;6.15;;;;;;;4.14;59.41;99697.09;4398771;32;20190;-90
2020/12/27 10:37:00;;;;;;;12.63;7.35;;;;;;;3.79;59.39;99689.59;4400704;32;20128;-90
2020/12/27 10:39:26;;;;;;;14.35;6.65;;;;;;;3.87;59.39;99698.13;4410929;32;20105;-91
2020/12/27 10:41:52;;;;;;;17.25;7.43;;;;;;;3.87;59.39;99697.25;4400536;32;20394;-90
2020/12/27 10:44:18;;;;;;;16.70;7.50;;;;;;;3.94;59.40;99693.78;4411088;32;20093;-90
2020/12/27 10:46:44;;;;;;;13.85;6.95;;;;;;;4.20;59.40;99688.44;4399915;32;20143;-91
2020/12/27 10:49:09;;;;;;;15.40;7.95;;;;;;;3.81;59.38;99687.84;4410987;32;20105;-92
2020/12/27 10:51:38;;;;;;;12.88;6.55;;;;;;;3.81;59.39;99687.00;4398088;32;20450;-90
2020/12/27 10:54:04;;;;;;;16.92;7.82;;;;;;;3.75;59.38;99692.16;4410998;32;20110;-90
2020/12/27 10:56:29;;;;;;;19.77;9.38;;;;;;;3.67;59.38;99679.34;4407857;32;20126;-90
2020/12/27 10:58:55;;;;;;;14.45;7.47;;;;;;;3.64;59.38;99671.63;4370813;32;20697;-90
2020/12/27 11:01:21;;;;;;;18.23;8.63;;;;;;;3.49;59.37;99662.28;4370819;32;20140;-90
2020/12/27 11:03:46;;;;;;;20.55;9.05;;;;;;;3.78;59.39;99662.09;4370460;32;20090;-90
2020/12/27 11:06:11;;;;;;;16.70;8.73;;;;;;;3.99;59.40;99646.50;4371572;32;20164;-91
2020/12/27 11:08:37;;;;;;;21.92;8.63;;;;;;;4.01;59.40;99638.78;4370574;32;20949;-92
2020/12/27 11:11:02;;;;;;;18.20;9.07;;;;;;;4.29;59.42;99632.56;4370886;32;20137;-88
2020/12/27 11:13:28;;;;;;;17.23;9.13;;;;;;;4.22;59.42;99622.31;4369496;32;20145;-89
2020/12/27 11:15:53;;;;;;;18.65;9.20;;;;;;;4.48;59.43;99615.19;4368501;32;26763;-89
2020/12/27 11:18:18;;;;;;;13.43;7.32;;;;;;;4.35;59.42;99615.34;4381425;32;20133;-88
2020/12/27 11:20:44;;;;;;;16.92;8.32;;;;;;;4.26;59.41;99616.28;4395035;32;20179;-90
2020/12/27 11:23:09;;;;;;;20.77;8.10;;;;;;;4.14;59.41;99608.66;4381401;32;20117;-90
2020/12/27 11:25:35;;;;;;;16.27;7.85;;;;;;;4.25;59.41;99611.97;4393921;32;20193;-88
2020/12/27 11:28:00;;;;;;;15.93;7.53;;;;;;;4.27;59.42;99605.09;4381446;32;20378;-87
2020/12/27 11:30:26;;;;;;;17.60;7.32;;;;;;;4.29;59.42;99585.34;4368287;32;20157;-87
2020/12/27 11:32:51;;;;;;;18.15;8.70;;;;;;;4.36;59.42;99575.81;4368871;32;20146;-86
2020/12/27 11:35:16;;;;;;;23.92;9.88;;;;;;;4.24;59.42;99571.63;4392638;32;20121;-87